createdAt,value
2023-01-05T00:01:12.629Z,20.20
2023-01-05T00:03:40.214Z,17.50
2023-01-05T00:06:12.440Z,19.63
2023-01-05T00:08:40.614Z,22.67
2023-01-05T00:11:12.486Z,17.40
2023-01-05T00:13:40.019Z,21.27
2023-01-05T00:16:16.458Z,19.83
2023-01-05T00:18:44.053Z,21.20
2023-01-05T00:21:15.428Z,17.87
2023-01-05T00:23:44.936Z,19.07
2023-01-05T00:26:12.425Z,20.87
2023-01-05T00:28:40.020Z,16.10
2023-01-05T00:31:10.459Z,21.90
2023-01-05T00:33:38.036Z,18.23
2023-01-05T00:36:09.670Z,26.67
2023-01-05T00:38:37.260Z,20.13
2023-01-05T00:41:04.850Z,23.17
2023-01-05T00:43:32.437Z,18.70
2023-01-05T00:46:00.108Z,21.60
2023-01-05T00:48:30.538Z,17.53
2023-01-05T00:50:58.130Z,23.90
2023-01-05T00:53:25.737Z,20.67
2023-01-05T00:55:57.447Z,15.73
2023-01-05T00:58:25.014Z,18.20
2023-01-05T01:00:52.609Z,20.00
2023-01-05T01:03:20.334Z,19.93
2023-01-05T01:05:56.493Z,22.67
2023-01-05T01:08:24.098Z,24.13
2023-01-05T01:10:51.668Z,19.20
2023-01-05T01:13:19.273Z,21.30
2023-01-05T01:15:49.221Z,22.40
2023-01-05T01:18:16.790Z,21.37
2023-01-05T01:20:44.300Z,19.30
2023-01-05T01:23:14.688Z,17.47
2023-01-05T01:25:42.241Z,19.73
2023-01-05T01:28:09.755Z,24.00
2023-01-05T01:30:40.236Z,18.57
2023-01-05T01:33:07.809Z,21.63
2023-01-05T01:35:37.609Z,16.03
2023-01-05T01:38:05.480Z,22.40
2023-01-05T01:40:38.700Z,22.97
2023-01-05T01:43:16.703Z,21.90
2023-01-05T01:45:45.527Z,22.37
2023-01-05T01:48:17.568Z,23.03
2023-01-05T01:50:48.531Z,24.07
2023-01-05T01:53:18.939Z,21.03
2023-01-05T01:55:46.878Z,21.90
2023-01-05T01:58:16.361Z,16.57
2023-01-05T02:00:44.529Z,25.73
2023-01-05T02:03:12.068Z,24.33
2023-01-05T02:05:39.683Z,20.33
2023-01-05T02:08:16.989Z,20.33
2023-01-05T02:11:02.876Z,21.10
2023-01-05T02:13:54.331Z,22.23
2023-01-05T02:16:24.732Z,26.70
2023-01-05T02:18:55.184Z,17.90
2023-01-05T02:21:39.953Z,25.00
2023-01-05T02:24:07.520Z,29.33
2023-01-05T02:26:35.078Z,21.93
2023-01-05T02:29:02.673Z,19.20
2023-01-05T02:31:36.286Z,22.97
2023-01-05T02:34:20.403Z,23.33
2023-01-05T02:36:53.849Z,23.13
2023-01-05T02:39:36.008Z,21.00
2023-01-05T02:42:11.948Z,27.03
2023-01-05T02:44:39.546Z,19.07
2023-01-05T02:47:08.394Z,21.17
2023-01-05T02:49:39.171Z,25.03
2023-01-05T02:52:08.813Z,22.27
2023-01-05T02:54:45.106Z,22.67
2023-01-05T02:57:15.210Z,22.13
2023-01-05T02:59:44.808Z,24.57
2023-01-05T03:02:14.809Z,17.47
2023-01-05T03:05:08.625Z,29.57
2023-01-05T03:07:40.195Z,24.50
2023-01-05T03:10:08.328Z,25.97
2023-01-05T03:12:36.413Z,16.50
2023-01-05T03:15:09.439Z,23.80
2023-01-05T03:17:44.703Z,15.63
2023-01-05T03:20:14.315Z,23.20
2023-01-05T03:22:43.767Z,20.97
2023-01-05T03:25:12.713Z,24.33
2023-01-05T03:27:40.765Z,22.87
2023-01-05T03:30:08.754Z,20.33
2023-01-05T03:32:37.758Z,20.03
2023-01-05T03:35:08.307Z,28.23
2023-01-05T03:37:45.142Z,24.17
2023-01-05T03:40:15.766Z,27.97
2023-01-05T03:42:44.140Z,18.67
2023-01-05T03:45:11.982Z,18.67
2023-01-05T03:47:39.509Z,22.50
2023-01-05T03:50:07.379Z,26.03
2023-01-05T03:52:34.949Z,17.30
2023-01-05T03:55:02.526Z,21.60
2023-01-05T03:57:30.137Z,18.57
2023-01-05T03:59:57.680Z,20.97
2023-01-05T04:02:31.266Z,19.00
2023-01-05T04:04:58.941Z,20.00
2023-01-05T04:07:26.539Z,23.33
2023-01-05T04:09:54.129Z,25.33
2023-01-05T04:12:21.606Z,22.93
2023-01-05T04:14:49.204Z,19.57
2023-01-05T04:17:19.182Z,28.93
2023-01-05T04:19:46.753Z,15.47
2023-01-05T04:22:14.279Z,26.60
2023-01-05T04:24:41.874Z,24.07
2023-01-05T04:27:09.407Z,20.27
2023-01-05T04:29:37.013Z,17.70
2023-01-05T04:32:04.607Z,23.63
2023-01-05T04:34:32.147Z,14.30
2023-01-05T04:36:59.786Z,23.03
2023-01-05T04:39:27.370Z,20.60
2023-01-05T04:41:54.917Z,32.50
2023-01-05T04:44:22.541Z,24.37
2023-01-05T04:46:50.190Z,24.17
2023-01-05T04:49:17.814Z,26.03
2023-01-05T04:51:45.343Z,25.20
2023-01-05T04:54:12.913Z,24.87
2023-01-05T04:56:40.438Z,20.00
2023-01-05T04:59:08.047Z,21.33
2023-01-05T05:01:35.682Z,23.40
2023-01-05T05:04:03.366Z,18.60
2023-01-05T05:06:30.913Z,30.53
2023-01-05T05:08:58.496Z,29.37
2023-01-05T05:11:26.268Z,25.07
2023-01-05T05:13:53.850Z,14.67
2023-01-05T05:16:21.630Z,23.13
2023-01-05T05:18:49.266Z,23.20
2023-01-05T05:21:16.822Z,21.50
2023-01-05T05:23:44.358Z,28.40
2023-01-05T05:26:11.910Z,22.27
2023-01-05T05:28:39.593Z,22.83
2023-01-05T05:31:07.153Z,26.87
2023-01-05T05:33:34.735Z,24.20
2023-01-05T05:36:02.225Z,21.67
2023-01-05T05:38:29.787Z,22.40
2023-01-05T05:41:00.179Z,23.43
2023-01-05T05:43:27.766Z,18.93
2023-01-05T05:45:55.283Z,20.33
2023-01-05T05:48:22.833Z,25.37
2023-01-05T05:50:50.374Z,26.40
2023-01-05T05:53:17.975Z,24.17
2023-01-05T05:55:48.843Z,20.93
2023-01-05T05:58:16.966Z,21.77
2023-01-05T06:00:44.689Z,23.43
2023-01-05T06:03:12.572Z,23.00
2023-01-05T06:05:40.337Z,23.10
2023-01-05T06:08:07.952Z,25.27
2023-01-05T06:10:35.440Z,30.80
2023-01-05T06:13:02.984Z,26.90
2023-01-05T06:15:30.562Z,22.50
2023-01-05T06:17:58.132Z,19.90
2023-01-05T06:20:25.665Z,21.60
2023-01-05T06:22:53.226Z,23.73
2023-01-05T06:25:20.796Z,25.30
2023-01-05T06:27:48.354Z,31.80
2023-01-05T06:30:15.862Z,38.13
2023-01-05T06:32:43.416Z,29.97
2023-01-05T06:35:10.993Z,26.23
2023-01-05T06:37:38.694Z,25.00
2023-01-05T06:40:06.473Z,35.63
2023-01-05T06:42:34.036Z,21.40
2023-01-05T06:45:01.751Z,28.97
2023-01-05T06:47:29.392Z,26.33
2023-01-05T06:49:57.015Z,29.63
2023-01-05T06:52:24.768Z,32.40
2023-01-05T06:54:52.259Z,28.23
2023-01-05T06:57:19.806Z,22.40
2023-01-05T06:59:47.353Z,31.37
2023-01-05T07:02:16.291Z,28.53
2023-01-05T07:04:43.969Z,25.67
2023-01-05T07:07:15.440Z,27.20
2023-01-05T07:09:43.240Z,32.33
2023-01-05T07:12:10.773Z,31.77
2023-01-05T07:14:38.392Z,28.63
2023-01-05T07:17:05.935Z,34.37
2023-01-05T07:19:33.598Z,33.73
2023-01-05T07:22:01.179Z,33.93
2023-01-05T07:24:28.723Z,32.70
2023-01-05T07:26:56.241Z,37.33
2023-01-05T07:29:23.789Z,34.13
2023-01-05T07:31:51.516Z,25.47
2023-01-05T07:34:19.598Z,27.07
2023-01-05T07:36:47.302Z,36.07
2023-01-05T07:39:14.984Z,25.10
2023-01-05T07:41:42.510Z,27.97
2023-01-05T07:44:10.152Z,33.00
2023-01-05T07:46:37.689Z,29.73
2023-01-05T07:49:05.420Z,26.47
2023-01-05T07:51:32.962Z,31.40
2023-01-05T07:54:01.037Z,35.27
2023-01-05T07:56:28.542Z,33.30
2023-01-05T07:58:56.123Z,23.20
2023-01-05T08:01:23.790Z,27.77
2023-01-05T08:03:51.600Z,24.90
2023-01-05T08:06:19.911Z,28.63
2023-01-05T08:08:48.177Z,31.73
2023-01-05T08:11:16.509Z,34.53
2023-01-05T08:13:44.883Z,33.10
2023-01-05T08:16:12.431Z,23.87
2023-01-05T08:18:40.033Z,31.10
2023-01-05T08:21:07.604Z,34.20
2023-01-05T08:23:35.473Z,30.60
2023-01-05T08:26:06.791Z,27.23
2023-01-05T08:28:35.956Z,28.60
2023-01-05T08:31:08.294Z,32.80
2023-01-05T08:33:35.892Z,32.23
2023-01-05T08:36:07.753Z,27.10
2023-01-05T08:38:35.352Z,26.43
2023-01-05T08:41:02.870Z,34.37
2023-01-05T08:43:30.474Z,29.67
2023-01-05T08:45:58.137Z,31.80
2023-01-05T08:48:25.720Z,37.30
2023-01-05T08:50:53.197Z,25.13
2023-01-05T08:53:20.756Z,27.30
2023-01-05T08:55:48.222Z,33.57
2023-01-05T08:58:15.805Z,22.50
2023-01-05T09:00:43.353Z,31.67
2023-01-05T09:03:11.061Z,31.70
2023-01-05T09:05:38.634Z,32.23
2023-01-05T09:08:06.257Z,28.33
2023-01-05T09:10:33.854Z,27.07
2023-01-05T09:13:01.443Z,26.77
2023-01-05T09:15:29.055Z,28.27
2023-01-05T09:17:56.634Z,33.17
2023-01-05T09:20:24.198Z,23.57
2023-01-05T09:22:51.902Z,31.47
2023-01-05T09:25:19.419Z,30.97
2023-01-05T09:27:46.978Z,35.00
2023-01-05T09:30:14.734Z,34.30
2023-01-05T09:32:42.293Z,31.40
2023-01-05T09:35:09.961Z,29.87
2023-01-05T09:37:37.491Z,26.90
2023-01-05T09:40:05.227Z,29.53
2023-01-05T09:42:32.860Z,27.23
2023-01-05T09:45:03.533Z,23.27
2023-01-05T09:47:35.370Z,24.87
2023-01-05T09:50:03.579Z,27.80
2023-01-05T09:52:36.117Z,31.30
2023-01-05T09:55:19.002Z,21.40
2023-01-05T09:58:13.097Z,25.33
2023-01-05T10:00:45.256Z,27.90
2023-01-05T10:03:53.527Z,26.70
2023-01-05T10:06:12.524Z,30.47
2023-01-05T10:08:41.723Z,28.10
2023-01-05T10:11:14.242Z,26.00
2023-01-05T10:13:46.227Z,29.03
2023-01-05T10:16:16.902Z,31.63
2023-01-05T10:18:44.868Z,31.03
2023-01-05T10:21:12.473Z,24.13
2023-01-05T10:23:40.077Z,30.97
2023-01-05T10:26:15.435Z,23.67
2023-01-05T10:28:47.717Z,23.43
2023-01-05T10:31:25.579Z,25.67
2023-01-05T10:33:59.035Z,31.37
2023-01-05T10:37:05.987Z,31.10
2023-01-05T10:39:43.733Z,27.83
2023-01-05T10:42:23.909Z,29.10
2023-01-05T10:44:51.441Z,37.63
2023-01-05T10:47:20.285Z,25.87
2023-01-05T10:49:48.032Z,27.37
2023-01-05T10:52:17.166Z,36.47
2023-01-05T10:54:48.047Z,31.13
2023-01-05T10:57:35.259Z,24.87
2023-01-05T11:00:12.198Z,31.63
2023-01-05T11:02:42.092Z,38.00
2023-01-05T11:05:12.860Z,27.43
2023-01-05T11:07:50.901Z,30.03
2023-01-05T11:10:21.230Z,24.57
2023-01-05T11:12:53.640Z,30.30
2023-01-05T11:15:21.769Z,30.23
2023-01-05T11:17:49.349Z,29.67
2023-01-05T11:20:17.871Z,34.90
2023-01-05T11:22:45.504Z,27.07
2023-01-05T11:25:19.451Z,22.73
2023-01-05T11:27:52.631Z,36.30
2023-01-05T11:30:24.929Z,27.17
2023-01-05T11:32:52.521Z,24.93
2023-01-05T11:35:29.460Z,25.93
2023-01-05T11:37:57.242Z,23.60
2023-01-05T11:40:27.581Z,28.17
2023-01-05T11:42:55.488Z,33.63
2023-01-05T11:45:24.384Z,33.20
2023-01-05T11:47:52.162Z,19.33
2023-01-05T11:50:22.986Z,28.97
2023-01-05T11:52:55.346Z,28.27
2023-01-05T11:55:22.959Z,24.23
2023-01-05T11:57:59.980Z,27.70
2023-01-05T12:00:29.594Z,23.60
2023-01-05T12:03:00.163Z,24.37
2023-01-05T12:05:37.030Z,26.10
2023-01-05T12:08:12.859Z,22.80
2023-01-05T12:11:02.630Z,23.07
2023-01-05T12:13:48.909Z,34.73
2023-01-05T12:16:22.472Z,19.93
2023-01-05T12:18:50.065Z,20.97
2023-01-05T12:21:23.309Z,26.87
2023-01-05T12:23:53.959Z,21.63
2023-01-05T12:26:34.004Z,24.13
2023-01-05T12:30:24.989Z,24.63
2023-01-05T12:35:24.263Z,22.87
2023-01-05T12:37:51.833Z,23.40
2023-01-05T12:40:22.156Z,25.23
2023-01-05T12:43:08.689Z,23.93
2023-01-05T12:45:42.019Z,29.47
2023-01-05T12:48:13.556Z,21.23
2023-01-05T12:50:48.547Z,23.57
2023-01-05T12:53:16.089Z,28.27
2023-01-05T12:55:46.251Z,19.93
2023-01-05T12:58:17.819Z,23.23
2023-01-05T13:00:49.078Z,23.40
2023-01-05T13:03:36.961Z,24.40
2023-01-05T13:06:10.966Z,29.60
2023-01-05T13:08:44.581Z,22.53
2023-01-05T13:11:18.066Z,22.10
2023-01-05T13:13:48.877Z,16.00
2023-01-05T13:16:19.706Z,20.77
2023-01-05T13:18:53.107Z,20.60
2023-01-05T13:21:22.030Z,26.17
2023-01-05T13:23:52.120Z,20.70
2023-01-05T13:26:20.692Z,17.93
2023-01-05T13:28:53.213Z,23.97
2023-01-05T13:31:23.983Z,20.93
2023-01-05T13:34:10.424Z,15.93
2023-01-05T13:36:43.952Z,18.13
2023-01-05T13:39:22.652Z,25.57
2023-01-05T13:41:59.163Z,14.47
2023-01-05T13:44:26.713Z,18.33
2023-01-05T13:46:54.273Z,15.03
2023-01-05T13:49:33.875Z,22.50
2023-01-05T13:52:09.720Z,20.87
2023-01-05T13:54:59.884Z,24.23
2023-01-05T13:57:39.055Z,17.37
2023-01-05T14:00:10.989Z,27.20
2023-01-05T14:02:39.596Z,27.17
2023-01-05T14:05:09.425Z,19.30
2023-01-05T14:07:40.090Z,22.60
2023-01-05T14:10:19.640Z,20.93
2023-01-05T14:12:48.651Z,19.43
2023-01-05T14:15:35.274Z,21.53
2023-01-05T14:18:03.455Z,17.97
2023-01-05T14:20:36.115Z,14.80
2023-01-05T14:23:24.058Z,19.67
2023-01-05T14:25:54.362Z,16.27
2023-01-05T14:28:31.072Z,17.50
2023-01-05T14:31:11.060Z,11.97
2023-01-05T14:33:50.606Z,25.13
2023-01-05T14:36:37.154Z,22.17
2023-01-05T14:39:24.983Z,17.73
2023-01-05T14:41:58.750Z,20.43
2023-01-05T14:44:30.546Z,23.30
2023-01-05T14:46:58.479Z,21.17
2023-01-05T14:49:32.187Z,20.77
2023-01-05T14:52:01.128Z,27.43
2023-01-05T14:54:44.000Z,34.83
2023-01-05T14:57:20.709Z,26.17
2023-01-05T14:59:49.057Z,24.90
2023-01-05T15:02:21.844Z,29.60
2023-01-05T15:04:53.664Z,31.90
2023-01-05T15:07:34.448Z,31.83
2023-01-05T15:10:11.337Z,26.83
2023-01-05T15:12:38.929Z,28.83
2023-01-05T15:15:15.717Z,34.97
2023-01-05T15:17:49.166Z,29.17
2023-01-05T15:20:35.704Z,29.90
2023-01-05T15:23:12.039Z,30.13
2023-01-05T15:25:53.148Z,24.67
2023-01-05T15:28:49.355Z,25.50
2023-01-05T15:31:21.190Z,33.80
2023-01-05T15:33:58.037Z,27.47
2023-01-05T15:36:40.258Z,26.67
2023-01-05T15:39:27.700Z,28.77
2023-01-05T15:41:57.114Z,23.30
2023-01-05T15:44:26.811Z,30.43
2023-01-05T15:46:56.828Z,25.73
2023-01-05T15:49:25.368Z,24.97
2023-01-05T15:51:53.959Z,30.43
2023-01-05T15:54:23.253Z,25.43
2023-01-05T15:56:50.828Z,31.17
2023-01-05T15:59:21.703Z,25.40
2023-01-05T16:01:49.249Z,27.03
2023-01-05T16:04:16.790Z,27.67
2023-01-05T16:06:45.615Z,28.23
2023-01-05T16:09:28.349Z,32.00
2023-01-05T16:11:59.004Z,25.70
2023-01-05T16:14:29.165Z,25.37
2023-01-05T16:17:07.039Z,23.60
2023-01-05T16:19:37.567Z,28.53
2023-01-05T16:22:08.967Z,26.13
2023-01-05T16:24:45.906Z,24.53
2023-01-05T16:27:14.430Z,36.17
2023-01-05T16:29:43.555Z,24.30
2023-01-05T16:32:26.536Z,30.50
2023-01-05T16:35:14.119Z,32.27
2023-01-05T16:37:41.713Z,25.57
2023-01-05T16:40:19.833Z,26.00
2023-01-05T16:42:49.061Z,29.70
2023-01-05T16:45:21.518Z,23.97
2023-01-05T16:47:49.467Z,25.33
2023-01-05T16:50:19.769Z,32.23
2023-01-05T16:52:56.679Z,26.53
2023-01-05T16:55:29.275Z,28.80
2023-01-05T16:57:57.581Z,31.80
2023-01-05T17:00:30.914Z,30.63
2023-01-05T17:02:59.364Z,29.80
2023-01-05T17:05:28.447Z,32.63
2023-01-05T17:08:03.551Z,28.70
2023-01-05T17:10:31.389Z,28.43
2023-01-05T17:13:06.497Z,29.10
2023-01-05T17:15:35.649Z,33.37
2023-01-05T17:18:11.690Z,32.70
2023-01-05T17:20:41.542Z,27.57
2023-01-05T17:23:27.842Z,25.33
2023-01-05T17:25:56.876Z,31.53
2023-01-05T17:28:24.614Z,36.30
2023-01-05T17:30:53.245Z,30.33
2023-01-05T17:33:21.112Z,27.03
2023-01-05T17:35:49.582Z,24.47
2023-01-05T17:38:17.398Z,24.13
2023-01-05T17:40:45.094Z,25.97
2023-01-05T17:43:12.723Z,28.83
2023-01-05T17:45:41.825Z,25.37
2023-01-05T17:48:09.438Z,28.97
2023-01-05T17:50:37.070Z,20.33
2023-01-05T17:53:05.465Z,26.43
2023-01-05T17:55:33.174Z,24.33
2023-01-05T17:58:00.925Z,28.80
2023-01-05T18:00:30.598Z,26.83
2023-01-05T18:02:58.378Z,26.00
2023-01-05T18:05:26.021Z,21.07
2023-01-05T18:07:53.626Z,19.13
2023-01-05T18:10:25.257Z,22.63
2023-01-05T18:12:54.588Z,15.17
2023-01-05T18:15:22.183Z,24.10
2023-01-05T18:17:49.806Z,25.63
2023-01-05T18:20:19.852Z,31.90
2023-01-05T18:22:49.486Z,22.03
2023-01-05T18:25:17.833Z,27.60
2023-01-05T18:27:48.583Z,26.20
2023-01-05T18:30:16.371Z,21.73
2023-01-05T18:32:43.937Z,24.10
2023-01-05T18:35:11.779Z,20.00
2023-01-05T18:37:40.163Z,24.87
2023-01-05T18:40:10.269Z,22.07
2023-01-05T18:42:38.550Z,23.47
2023-01-05T18:45:18.770Z,20.70
2023-01-05T18:47:47.562Z,20.87
2023-01-05T18:50:15.119Z,29.23
2023-01-05T18:52:42.824Z,21.40
2023-01-05T18:55:10.556Z,19.63
2023-01-05T18:57:38.157Z,25.53
2023-01-05T19:00:05.960Z,21.53
2023-01-05T19:02:33.637Z,22.37
2023-01-05T19:05:01.178Z,20.57
2023-01-05T19:07:28.847Z,21.50
2023-01-05T19:09:56.428Z,21.43
2023-01-05T19:12:23.975Z,23.43
2023-01-05T19:14:51.484Z,21.30
2023-01-05T19:17:19.175Z,25.00
2023-01-05T19:19:46.767Z,20.50
2023-01-05T19:22:14.407Z,21.70
2023-01-05T19:24:41.965Z,19.93
2023-01-05T19:27:09.657Z,16.50
2023-01-05T19:29:37.202Z,21.70
2023-01-05T19:32:04.898Z,19.63
2023-01-05T19:34:32.484Z,19.13
2023-01-05T19:37:00.158Z,17.00
2023-01-05T19:39:27.690Z,20.13
2023-01-05T19:41:55.261Z,22.70
2023-01-05T19:44:23.061Z,17.93
2023-01-05T19:46:50.729Z,19.30
2023-01-05T19:49:22.677Z,18.93
2023-01-05T19:51:50.628Z,24.90
2023-01-05T19:54:18.421Z,17.70
2023-01-05T19:56:46.430Z,18.27
2023-01-05T19:59:15.858Z,22.07
2023-01-05T20:01:43.853Z,23.70
2023-01-05T20:04:11.512Z,22.43
2023-01-05T20:06:40.135Z,21.87
2023-01-05T20:09:09.270Z,18.93
2023-01-05T20:11:38.441Z,16.90
2023-01-05T20:14:12.651Z,20.23
2023-01-05T20:16:41.001Z,20.43
2023-01-05T20:19:08.686Z,19.23
2023-01-05T20:21:36.330Z,16.23
2023-01-05T20:24:04.482Z,17.17
2023-01-05T20:26:32.041Z,14.10
2023-01-05T20:28:59.644Z,19.37
2023-01-05T20:31:29.053Z,16.67
2023-01-05T20:33:57.942Z,18.20
2023-01-05T20:36:26.044Z,18.07
2023-01-05T20:38:54.152Z,20.67
2023-01-05T20:41:25.931Z,16.23
2023-01-05T20:43:53.802Z,15.23
2023-01-05T20:46:23.311Z,16.27
2023-01-05T20:48:52.063Z,14.77
2023-01-05T20:51:20.123Z,20.17
2023-01-05T20:53:48.014Z,13.40
2023-01-05T20:56:17.560Z,16.97
2023-01-05T20:58:46.075Z,16.97
2023-01-05T21:01:14.302Z,15.43
2023-01-05T21:03:42.443Z,13.53
2023-01-05T21:06:10.748Z,16.37
2023-01-05T21:08:38.362Z,18.03
2023-01-05T21:11:06.751Z,14.13
2023-01-05T21:13:34.316Z,14.20
2023-01-05T21:16:06.007Z,16.20
2023-01-05T21:18:34.831Z,15.53
2023-01-05T21:21:05.268Z,15.07
2023-01-05T21:23:32.939Z,14.53
2023-01-05T21:26:06.549Z,14.30
2023-01-05T21:28:36.123Z,19.73
2023-01-05T21:31:09.869Z,16.40
2023-01-05T21:33:41.960Z,14.40
2023-01-05T21:36:15.857Z,18.57
2023-01-05T21:39:01.152Z,13.97
2023-01-05T21:41:31.623Z,13.60
2023-01-05T21:43:59.820Z,15.53
2023-01-05T21:46:27.584Z,16.83
2023-01-05T21:48:55.853Z,11.80
2023-01-05T21:51:23.637Z,14.10
2023-01-05T21:53:51.241Z,15.80
2023-01-05T21:56:18.929Z,16.13
2023-01-05T21:58:46.794Z,16.63
2023-01-05T22:01:14.439Z,13.50
2023-01-05T22:03:42.182Z,12.73
2023-01-05T22:06:11.075Z,11.97
2023-01-05T22:08:38.742Z,11.87
2023-01-05T22:11:07.080Z,11.67
2023-01-05T22:13:36.633Z,11.30
2023-01-05T22:16:04.771Z,10.13
2023-01-05T22:18:32.902Z,10.50
2023-01-05T22:21:05.786Z,9.30
2023-01-05T22:23:34.209Z,11.20
2023-01-05T22:26:03.016Z,11.70
2023-01-05T22:28:30.797Z,10.93
2023-01-05T22:31:12.450Z,8.67
2023-01-05T22:33:41.220Z,9.63
2023-01-05T22:36:09.232Z,8.67
2023-01-05T22:38:38.110Z,9.20
2023-01-05T22:41:06.305Z,7.97
2023-01-05T22:43:34.033Z,7.80
2023-01-05T22:46:06.448Z,6.83
2023-01-05T22:48:37.907Z,7.70
2023-01-05T22:51:06.177Z,6.83
2023-01-05T22:53:33.846Z,7.30
2023-01-05T22:56:01.893Z,5.17
2023-01-05T22:58:29.855Z,5.17
2023-01-05T23:01:06.133Z,5.33
2023-01-05T23:03:33.834Z,5.10
2023-01-05T23:06:01.524Z,10.97
2023-01-05T23:08:29.377Z,3.47
2023-01-05T23:11:05.000Z,8.20
2023-01-05T23:13:32.853Z,6.60
2023-01-05T23:16:00.849Z,5.27
2023-01-05T23:18:30.125Z,7.87
2023-01-05T23:21:02.851Z,6.00
2023-01-05T23:23:30.937Z,2.67
2023-01-05T23:25:59.705Z,3.23
2023-01-05T23:28:28.212Z,4.67
2023-01-05T23:30:56.841Z,5.60
2023-01-05T23:36:08.300Z,6.33
2023-01-05T23:38:35.869Z,5.60
2023-01-05T23:41:05.154Z,6.07
2023-01-05T23:43:33.218Z,5.40
2023-01-05T23:46:02.517Z,6.93
2023-01-05T23:48:30.325Z,5.17
2023-01-05T23:50:58.241Z,4.73
2023-01-05T23:53:26.163Z,4.57
2023-01-05T23:55:54.050Z,6.40
2023-01-05T23:58:21.584Z,4.60
